Time;durP1;ratioP1;P1;durP2;ratioP2;P2;SDS_P1;SDS_P2;PMS_P1;PMS_P2;Temp;Humidity;BMP_temperature;BMP_pressure;BME280_temperature;BME280_humidity;BME280_pressure;Samples;Min_cycle;Max_cycle;Signal;HPM_P1;HPM_P2
2022/10/13 00:00:54;;;;;;;3.78;3.17;;;;;;;;;;5071414;28;20316;-85
2022/10/13 00:03:21;;;;;;;6.75;4.40;;;;;;;;;;5074048;28;20626;-85
2022/10/13 00:05:50;;;;;;;5.53;4.40;;;;;;;;;;5075731;28;20207;-86
2022/10/13 00:08:21;;;;;;;4.22;3.50;;;;;;;;;;5075375;28;20760;-85
2022/10/13 00:10:51;;;;;;;3.53;3.22;;;;;;;;;;5075487;28;20201;-85
2022/10/13 00:13:20;;;;;;;3.08;2.83;;;;;;;;;;5074969;28;20556;-85
2022/10/13 00:15:48;;;;;;;3.00;2.55;;;;;;;;;;5075072;28;20196;-85
2022/10/13 00:18:16;;;;;;;2.80;2.60;;;;;;;;;;5075202;28;20220;-85
2022/10/13 00:20:46;;;;;;;3.75;3.35;;;;;;;;;;5075360;28;20311;-85
2022/10/13 00:23:14;;;;;;;5.57;3.83;;;;;;;;;;5074971;28;20239;-84
2022/10/13 00:25:43;;;;;;;4.00;3.70;;;;;;;;;;5075339;28;20197;-86
2022/10/13 00:28:13;;;;;;;5.00;4.28;;;;;;;;;;5074641;28;20704;-86
2022/10/13 00:30:40;;;;;;;5.15;3.72;;;;;;;;;;5074950;28;20203;-85
2022/10/13 00:33:09;;;;;;;4.78;4.20;;;;;;;;;;5074975;28;20287;-84
2022/10/13 00:35:41;;;;;;;5.07;3.67;;;;;;;;;;5075024;28;20219;-85
2022/10/13 00:38:09;;;;;;;3.67;3.05;;;;;;;;;;5074718;28;20231;-85
2022/10/13 00:40:45;;;;;;;4.13;3.50;;;;;;;;;;5074263;28;20235;-85
2022/10/13 00:43:18;;;;;;;5.40;4.13;;;;;;;;;;5075068;28;20671;-86
2022/10/13 00:45:48;;;;;;;4.97;4.13;;;;;;;;;;5074932;28;20684;-85
2022/10/13 00:48:16;;;;;;;5.60;4.78;;;;;;;;;;5074398;28;20289;-85
2022/10/13 00:50:44;;;;;;;3.97;3.63;;;;;;;;;;5074609;28;20288;-85
2022/10/13 00:53:13;;;;;;;4.10;3.80;;;;;;;;;;5075172;28;20201;-85
2022/10/13 00:55:42;;;;;;;7.47;4.82;;;;;;;;;;5074921;28;20571;-86
2022/10/13 00:58:14;;;;;;;4.38;3.95;;;;;;;;;;5074520;28;20229;-85
2022/10/13 01:00:44;;;;;;;3.53;3.22;;;;;;;;;;5074646;28;20227;-85
2022/10/13 01:03:12;;;;;;;3.95;3.55;;;;;;;;;;5074569;28;20211;-85
2022/10/13 01:05:40;;;;;;;4.25;3.78;;;;;;;;;;5074360;28;20289;-85
2022/10/13 01:08:08;;;;;;;4.88;4.40;;;;;;;;;;5073795;28;20216;-85
2022/10/13 01:10:45;;;;;;;5.45;4.95;;;;;;;;;;5074340;28;20240;-85
2022/10/13 01:13:21;;;;;;;5.05;4.55;;;;;;;;;;5074050;28;20204;-85
2022/10/13 01:15:55;;;;;;;5.20;4.80;;;;;;;;;;5073613;28;20208;-85
2022/10/13 01:18:27;;;;;;;7.50;6.15;;;;;;;;;;5074268;28;20217;-85
2022/10/13 01:21:09;;;;;;;6.13;4.72;;;;;;;;;;5074327;28;20216;-86
2022/10/13 01:24:21;;;;;;;3.60;3.30;;;;;;;;;;5074188;28;20627;-86
2022/10/13 01:27:26;;;;;;;3.53;3.22;;;;;;;;;;5074399;28;20223;-85
2022/10/13 01:30:10;;;;;;;5.75;3.80;;;;;;;;;;5073662;28;20308;-85
2022/10/13 01:33:08;;;;;;;4.90;4.43;;;;;;;;;;5073946;28;20208;-85
2022/10/13 01:35:54;;;;;;;6.32;5.40;;;;;;;;;;5074084;28;20215;-85
2022/10/13 01:38:30;;;;;;;6.97;5.78;;;;;;;;;;5073389;28;20221;-84
2022/10/13 01:41:04;;;;;;;8.98;5.70;;;;;;;;;;5073888;28;20319;-86
2022/10/13 01:43:36;;;;;;;6.53;5.85;;;;;;;;;;5073922;28;20197;-85
2022/10/13 01:46:08;;;;;;;6.47;5.43;;;;;;;;;;5073902;28;20204;-85
2022/10/13 01:48:39;;;;;;;5.45;4.90;;;;;;;;;;5073135;28;20235;-85
2022/10/13 01:51:09;;;;;;;7.53;4.82;;;;;;;;;;5073745;28;20289;-86
2022/10/13 01:53:37;;;;;;;7.95;4.65;;;;;;;;;;5073728;28;20207;-85
2022/10/13 01:56:05;;;;;;;4.90;4.40;;;;;;;;;;5073728;28;20235;-85
2022/10/13 01:58:35;;;;;;;6.85;4.38;;;;;;;;;;5073137;28;20223;-85
2022/10/13 02:01:16;;;;;;;6.53;4.82;;;;;;;;;;5073514;28;20256;-85
2022/10/13 02:03:57;;;;;;;5.18;4.68;;;;;;;;;;5073812;28;20272;-85
2022/10/13 02:06:28;;;;;;;6.00;4.32;;;;;;;;;;5073437;28;20220;-85
2022/10/13 02:09:01;;;;;;;3.65;3.35;;;;;;;;;;5073108;28;20235;-85
2022/10/13 02:11:29;;;;;;;4.22;3.80;;;;;;;;;;5073101;28;20287;-85
2022/10/13 02:14:03;;;;;;;5.85;4.25;;;;;;;;;;5072956;28;20297;-83
2022/10/13 02:16:36;;;;;;;4.40;3.83;;;;;;;;;;5073437;28;20205;-86
2022/10/13 02:19:06;;;;;;;4.72;4.32;;;;;;;;;;5072882;28;20221;-85
2022/10/13 02:21:34;;;;;;;5.22;4.72;;;;;;;;;;5073077;28;20231;-84
2022/10/13 02:24:02;;;;;;;4.60;4.15;;;;;;;;;;5072832;28;20296;-84
2022/10/13 02:26:30;;;;;;;4.15;3.83;;;;;;;;;;5072656;28;20197;-85
2022/10/13 02:28:58;;;;;;;4.97;4.45;;;;;;;;;;5072283;28;20223;-86
2022/10/13 02:31:25;;;;;;;4.97;4.57;;;;;;;;;;5073179;28;20207;-86
2022/10/13 02:33:54;;;;;;;5.45;4.93;;;;;;;;;;5072105;28;20284;-86
2022/10/13 02:36:22;;;;;;;8.60;5.97;;;;;;;;;;5072618;28;20228;-86
2022/10/13 02:38:49;;;;;;;7.20;6.50;;;;;;;;;;5072122;28;20227;-85
2022/10/13 02:41:17;;;;;;;7.63;6.65;;;;;;;;;;5072189;28;20239;-85
2022/10/13 02:43:44;;;;;;;6.25;5.65;;;;;;;;;;5073025;28;20210;-85
2022/10/13 02:46:12;;;;;;;5.40;4.88;;;;;;;;;;5072167;28;20197;-85
2022/10/13 02:48:39;;;;;;;4.50;4.10;;;;;;;;;;5072154;28;20229;-86
2022/10/13 02:51:08;;;;;;;5.25;4.75;;;;;;;;;;5072758;28;20291;-85
2022/10/13 02:53:36;;;;;;;4.57;4.18;;;;;;;;;;5072565;28;20247;-85
2022/10/13 02:56:03;;;;;;;5.05;4.65;;;;;;;;;;5072561;28;20232;-85
2022/10/13 02:58:31;;;;;;;4.38;3.53;;;;;;;;;;5071888;28;20216;-85
2022/10/13 03:01:06;;;;;;;5.47;5.00;;;;;;;;;;5071988;28;20207;-85
2022/10/13 03:03:34;;;;;;;5.28;4.78;;;;;;;;;;5072330;28;20204;-84
2022/10/13 03:06:01;;;;;;;4.57;4.18;;;;;;;;;;5072306;28;20627;-85
2022/10/13 03:08:32;;;;;;;4.00;3.55;;;;;;;;;;5072021;28;20303;-86
2022/10/13 03:10:59;;;;;;;5.53;5.00;;;;;;;;;;5072436;28;20809;-85
2022/10/13 03:13:27;;;;;;;5.28;4.78;;;;;;;;;;5072369;28;20203;-85
2022/10/13 03:15:55;;;;;;;5.00;4.60;;;;;;;;;;5071815;28;20224;-86
2022/10/13 03:18:22;;;;;;;4.20;3.90;;;;;;;;;;5071993;28;20255;-84
2022/10/13 03:20:57;;;;;;;3.67;3.38;;;;;;;;;;5072187;28;20197;-86
2022/10/13 03:23:25;;;;;;;4.25;3.95;;;;;;;;;;5072452;28;20227;-85
2022/10/13 03:25:54;;;;;;;4.80;4.30;;;;;;;;;;5072163;28;20578;-86
2022/10/13 03:28:22;;;;;;;5.03;4.63;;;;;;;;;;5072135;28;20658;-86
2022/10/13 03:30:50;;;;;;;8.50;5.05;;;;;;;;;;5072177;28;20300;-86
2022/10/13 03:33:18;;;;;;;5.00;4.60;;;;;;;;;;5078227;28;20291;-85
2022/10/13 03:35:46;;;;;;;5.55;4.88;;;;;;;;;;5074989;28;20235;-85
2022/10/13 03:38:13;;;;;;;4.60;4.22;;;;;;;;;;5074237;28;20253;-86
2022/10/13 03:40:41;;;;;;;4.35;3.95;;;;;;;;;;5076413;28;20258;-85
2022/10/13 03:43:10;;;;;;;4.50;4.10;;;;;;;;;;5076097;28;20775;-85
2022/10/13 03:45:37;;;;;;;5.00;4.43;;;;;;;;;;5075919;28;20292;-85
2022/10/13 03:48:05;;;;;;;3.78;3.47;;;;;;;;;;5075763;28;20209;-85
2022/10/13 03:50:33;;;;;;;5.15;4.65;;;;;;;;;;5076012;28;20283;-85
2022/10/13 03:53:00;;;;;;;3.70;3.40;;;;;;;;;;5076125;28;20291;-84
2022/10/13 03:55:28;;;;;;;3.53;3.22;;;;;;;;;;5075866;28;20212;-84
2022/10/13 03:57:55;;;;;;;4.63;4.15;;;;;;;;;;5075484;28;20200;-85
2022/10/13 04:00:24;;;;;;;6.82;5.40;;;;;;;;;;5075324;28;20672;-86
2022/10/13 04:02:51;;;;;;;5.32;4.82;;;;;;;;;;5075825;28;20225;-84
2022/10/13 04:05:19;;;;;;;4.57;3.50;;;;;;;;;;5075778;28;20201;-85
2022/10/13 04:07:46;;;;;;;4.72;4.32;;;;;;;;;;5075904;28;20280;-84
2022/10/13 04:10:14;;;;;;;5.13;3.90;;;;;;;;;;5075023;28;20732;-85
2022/10/13 04:12:41;;;;;;;3.47;3.22;;;;;;;;;;5075366;28;20204;-85
2022/10/13 04:15:10;;;;;;;4.78;4.38;;;;;;;;;;5075595;28;20297;-84
2022/10/13 04:17:39;;;;;;;4.68;3.97;;;;;;;;;;5075736;28;20551;-85
2022/10/13 04:20:09;;;;;;;5.53;4.65;;;;;;;;;;5075186;28;20323;-84
2022/10/13 04:22:36;;;;;;;5.13;4.68;;;;;;;;;;5075249;28;20217;-85
2022/10/13 04:25:04;;;;;;;4.13;3.80;;;;;;;;;;5075241;28;20201;-84
2022/10/13 04:27:32;;;;;;;5.28;4.50;;;;;;;;;;5075221;28;20193;-85
2022/10/13 04:29:59;;;;;;;4.53;4.13;;;;;;;;;;5074893;28;20307;-86
2022/10/13 04:32:27;;;;;;;4.70;4.18;;;;;;;;;;5075234;28;20284;-85
2022/10/13 04:34:56;;;;;;;4.18;3.85;;;;;;;;;;5075151;28;20688;-86
2022/10/13 04:37:24;;;;;;;4.68;4.28;;;;;;;;;;5075070;28;20317;-85
2022/10/13 04:39:52;;;;;;;5.93;4.30;;;;;;;;;;5074782;28;20300;-85
2022/10/13 04:42:19;;;;;;;5.15;4.65;;;;;;;;;;5075151;28;20235;-84
2022/10/13 04:44:47;;;;;;;5.07;4.63;;;;;;;;;;5080485;28;20197;-85
2022/10/13 04:47:14;;;;;;;4.70;4.30;;;;;;;;;;5075674;28;20224;-85
2022/10/13 04:49:42;;;;;;;4.53;4.05;;;;;;;;;;5074590;28;20712;-86
2022/10/13 04:52:11;;;;;;;4.80;3.08;;;;;;;;;;5075634;28;20304;-85
2022/10/13 04:54:38;;;;;;;4.07;3.17;;;;;;;;;;5080167;28;20201;-85
2022/10/13 04:57:06;;;;;;;3.25;2.95;;;;;;;;;;5088831;28;20264;-85
2022/10/13 04:59:33;;;;;;;3.35;3.05;;;;;;;;;;5082157;28;20313;-84
2022/10/13 05:02:02;;;;;;;3.13;2.83;;;;;;;;;;5081040;28;20200;-85
2022/10/13 05:04:29;;;;;;;3.40;3.10;;;;;;;;;;5080912;28;20240;-84
2022/10/13 05:06:57;;;;;;;3.17;2.88;;;;;;;;;;5083238;28;20201;-85
2022/10/13 05:09:26;;;;;;;5.47;4.65;;;;;;;;;;5078149;28;20639;-85
2022/10/13 05:11:54;;;;;;;7.78;5.88;;;;;;;;;;5076323;28;20250;-85
2022/10/13 05:14:22;;;;;;;6.70;6.07;;;;;;;;;;5076263;28;20196;-86
2022/10/13 05:16:49;;;;;;;5.50;4.97;;;;;;;;;;5075350;28;20197;-86
2022/10/13 05:19:17;;;;;;;5.53;4.90;;;;;;;;;;5074718;28;20243;-85
2022/10/13 05:21:44;;;;;;;6.38;5.70;;;;;;;;;;5075059;28;20232;-85
2022/10/13 05:24:14;;;;;;;5.97;5.47;;;;;;;;;;5074681;28;20279;-86
2022/10/13 05:26:43;;;;;;;8.02;7.25;;;;;;;;;;5075128;28;20197;-85
2022/10/13 05:29:11;;;;;;;7.47;6.15;;;;;;;;;;5075314;28;20223;-85
2022/10/13 05:31:38;;;;;;;6.20;5.55;;;;;;;;;;5074835;28;20201;-86
2022/10/13 05:34:06;;;;;;;6.75;6.05;;;;;;;;;;5077930;28;20201;-84
2022/10/13 05:36:35;;;;;;;6.20;5.63;;;;;;;;;;5077987;28;20644;-85
2022/10/13 05:39:06;;;;;;;5.72;5.22;;;;;;;;;;5075207;28;20692;-85
2022/10/13 05:41:33;;;;;;;5.22;4.72;;;;;;;;;;5078349;28;20225;-81
2022/10/13 05:44:06;;;;;;;5.60;5.10;;;;;;;;;;5081612;28;20227;-80
2022/10/13 05:46:34;;;;;;;5.50;5.00;;;;;;;;;;5081432;28;20288;-81
2022/10/13 05:49:02;;;;;;;6.45;5.82;;;;;;;;;;5080775;28;20700;-81
2022/10/13 05:51:33;;;;;;;6.05;5.45;;;;;;;;;;5080581;28;20671;-80
2022/10/13 05:54:04;;;;;;;5.22;4.80;;;;;;;;;;5078070;28;20288;-80
2022/10/13 05:56:35;;;;;;;4.70;4.30;;;;;;;;;;5082103;28;20197;-81
2022/10/13 05:59:06;;;;;;;7.05;6.32;;;;;;;;;;5077333;28;20332;-81
2022/10/13 06:01:38;;;;;;;7.07;6.38;;;;;;;;;;5080208;28;20722;-80
2022/10/13 06:04:17;;;;;;;5.47;4.97;;;;;;;;;;5080380;28;20224;-81
2022/10/13 06:06:45;;;;;;;6.15;5.55;;;;;;;;;;5079896;28;20720;-80
2022/10/13 06:09:12;;;;;;;4.80;4.40;;;;;;;;;;5080271;28;20288;-79
2022/10/13 06:11:40;;;;;;;4.07;3.72;;;;;;;;;;5077077;28;20295;-80
2022/10/13 06:14:09;;;;;;;6.05;5.53;;;;;;;;;;5080999;28;20296;-80
2022/10/13 06:16:36;;;;;;;5.05;4.55;;;;;;;;;;5079838;28;20228;-80
2022/10/13 06:19:05;;;;;;;5.10;4.65;;;;;;;;;;5079108;28;20223;-81
2022/10/13 06:21:33;;;;;;;4.78;4.28;;;;;;;;;;5080101;28;20268;-81
2022/10/13 06:24:01;;;;;;;3.13;2.92;;;;;;;;;;5081710;28;20225;-80
2022/10/13 06:26:28;;;;;;;3.33;3.03;;;;;;;;;;5079760;28;20231;-81
2022/10/13 06:28:56;;;;;;;3.55;3.25;;;;;;;;;;5072765;28;20256;-81
2022/10/13 06:31:25;;;;;;;3.03;2.80;;;;;;;;;;5081417;28;20661;-80
2022/10/13 06:33:53;;;;;;;4.15;3.75;;;;;;;;;;5082997;28;20204;-81
2022/10/13 06:36:20;;;;;;;3.42;3.13;;;;;;;;;;5081665;28;20215;-81
2022/10/13 06:38:48;;;;;;;5.38;4.82;;;;;;;;;;5078893;28;20223;-80
2022/10/13 06:41:15;;;;;;;5.35;4.85;;;;;;;;;;5079477;28;20262;-81
2022/10/13 06:43:43;;;;;;;5.65;5.15;;;;;;;;;;5078490;28;20308;-82
2022/10/13 06:46:11;;;;;;;4.93;4.43;;;;;;;;;;5078256;28;20201;-82
2022/10/13 06:48:40;;;;;;;5.95;5.45;;;;;;;;;;5079172;28;20770;-82
2022/10/13 06:51:10;;;;;;;4.88;4.47;;;;;;;;;;5078415;28;20224;-82
2022/10/13 06:53:38;;;;;;;4.60;4.20;;;;;;;;;;5078089;28;20202;-82
2022/10/13 06:56:08;;;;;;;3.95;3.58;;;;;;;;;;5079201;28;20280;-82
2022/10/13 06:58:35;;;;;;;3.95;3.65;;;;;;;;;;5079148;28;20754;-82
2022/10/13 07:01:03;;;;;;;5.53;5.03;;;;;;;;;;5082064;28;20681;-80
2022/10/13 07:03:31;;;;;;;5.10;4.47;;;;;;;;;;5082078;28;20201;-82
2022/10/13 07:06:02;;;;;;;6.78;4.47;;;;;;;;;;5081081;28;20680;-82
2022/10/13 07:08:30;;;;;;;4.28;3.95;;;;;;;;;;5077169;28;20783;-81
2022/10/13 07:10:57;;;;;;;8.68;4.18;;;;;;;;;;5079250;28;20291;-82
2022/10/13 07:13:25;;;;;;;4.95;4.38;;;;;;;;;;5076843;28;20197;-81
2022/10/13 07:15:52;;;;;;;4.50;3.97;;;;;;;;;;5077970;28;20199;-83
2022/10/13 07:18:20;;;;;;;3.78;3.47;;;;;;;;;;5078031;28;20228;-80
2022/10/13 07:20:47;;;;;;;5.95;5.35;;;;;;;;;;5078973;28;20201;-80
2022/10/13 07:23:16;;;;;;;4.55;4.15;;;;;;;;;;5081212;28;20688;-79
2022/10/13 07:25:43;;;;;;;3.58;3.28;;;;;;;;;;5079830;28;20229;-81
2022/10/13 07:28:11;;;;;;;5.10;4.60;;;;;;;;;;5074358;28;20217;-79
2022/10/13 07:30:39;;;;;;;5.13;4.63;;;;;;;;;;5080471;28;20232;-80
2022/10/13 07:33:07;;;;;;;5.25;4.55;;;;;;;;;;5078834;28;20232;-82
2022/10/13 07:35:37;;;;;;;4.25;3.90;;;;;;;;;;5077930;28;20225;-83
2022/10/13 07:38:05;;;;;;;5.20;4.28;;;;;;;;;;5076615;28;20292;-82
2022/10/13 07:40:34;;;;;;;4.82;4.22;;;;;;;;;;5076850;28;20244;-81
2022/10/13 07:43:02;;;;;;;4.95;4.38;;;;;;;;;;5074305;28;20213;-80
2022/10/13 07:45:29;;;;;;;4.20;3.80;;;;;;;;;;5075939;28;20776;-79
2022/10/13 07:47:57;;;;;;;4.70;4.30;;;;;;;;;;5074853;28;20687;-80
2022/10/13 07:50:25;;;;;;;6.63;5.57;;;;;;;;;;5076385;28;20629;-80
2022/10/13 07:52:52;;;;;;;8.35;6.05;;;;;;;;;;5079915;28;20735;-80
2022/10/13 07:55:19;;;;;;;6.70;5.70;;;;;;;;;;5077956;28;20306;-80
2022/10/13 07:57:48;;;;;;;6.75;6.05;;;;;;;;;;5079114;28;20201;-80
2022/10/13 08:00:16;;;;;;;6.97;5.28;;;;;;;;;;5078217;28;20229;-79
2022/10/13 08:02:44;;;;;;;5.80;5.00;;;;;;;;;;5077204;28;20264;-80
2022/10/13 08:05:11;;;;;;;5.68;5.18;;;;;;;;;;5076559;28;20292;-80
2022/10/13 08:07:39;;;;;;;5.00;4.57;;;;;;;;;;5076059;28;20736;-79
2022/10/13 08:10:08;;;;;;;5.03;4.55;;;;;;;;;;5076415;28;20758;-80
2022/10/13 08:12:36;;;;;;;5.20;4.38;;;;;;;;;;5075955;28;20646;-79
2022/10/13 08:15:05;;;;;;;6.85;6.05;;;;;;;;;;5075448;28;20280;-80
2022/10/13 08:17:33;;;;;;;5.90;4.50;;;;;;;;;;5076658;28;20227;-80
2022/10/13 08:20:00;;;;;;;6.78;5.63;;;;;;;;;;5074855;28;20312;-80
2022/10/13 08:22:28;;;;;;;6.20;5.50;;;;;;;;;;5076028;28;20232;-81
2022/10/13 08:24:55;;;;;;;5.45;4.68;;;;;;;;;;5078937;28;20221;-80
2022/10/13 08:27:25;;;;;;;4.93;4.43;;;;;;;;;;5078760;28;20280;-81
2022/10/13 08:29:53;;;;;;;4.38;4.00;;;;;;;;;;5077800;28;20220;-80
2022/10/13 08:32:22;;;;;;;6.00;5.40;;;;;;;;;;5077396;28;20205;-81
2022/10/13 08:34:50;;;;;;;9.68;5.70;;;;;;;;;;5078126;28;20304;-80
2022/10/13 08:37:20;;;;;;;6.05;5.45;;;;;;;;;;5079355;28;20292;-81
2022/10/13 08:39:48;;;;;;;5.53;4.40;;;;;;;;;;5077407;28;20227;-80
2022/10/13 08:42:19;;;;;;;5.15;4.65;;;;;;;;;;5077544;28;20200;-80
2022/10/13 08:44:51;;;;;;;4.18;3.83;;;;;;;;;;5077920;28;20197;-81
2022/10/13 08:47:30;;;;;;;7.40;5.82;;;;;;;;;;5078324;28;20703;-79
2022/10/13 08:50:02;;;;;;;6.13;5.47;;;;;;;;;;5077337;28;20703;-80
2022/10/13 08:52:48;;;;;;;6.80;6.20;;;;;;;;;;5078132;28;20205;-80
2022/10/13 08:55:26;;;;;;;7.50;5.85;;;;;;;;;;5077427;28;20314;-81
2022/10/13 08:57:53;;;;;;;6.63;5.90;;;;;;;;;;5077127;28;20197;-80
2022/10/13 09:00:21;;;;;;;5.47;4.40;;;;;;;;;;5076486;28;20211;-81
2022/10/13 09:02:50;;;;;;;4.55;4.15;;;;;;;;;;5077365;28;20201;-81
2022/10/13 09:05:34;;;;;;;6.82;5.68;;;;;;;;;;5076929;28;20718;-80
2022/10/13 09:08:02;;;;;;;6.85;5.63;;;;;;;;;;5079165;28;20206;-79
2022/10/13 09:10:30;;;;;;;6.40;5.47;;;;;;;;;;5078273;28;20303;-81
2022/10/13 09:12:59;;;;;;;7.63;6.55;;;;;;;;;;5077256;28;20269;-82
2022/10/13 09:15:27;;;;;;;6.88;5.97;;;;;;;;;;5078678;28;20197;-82
2022/10/13 09:18:12;;;;;;;6.95;6.22;;;;;;;;;;5078266;28;20288;-80
2022/10/13 09:20:39;;;;;;;9.15;6.72;;;;;;;;;;5077499;28;20205;-82
2022/10/13 09:23:16;;;;;;;6.22;5.15;;;;;;;;;;5076555;28;20207;-81
2022/10/13 09:25:47;;;;;;;6.55;5.40;;;;;;;;;;5075555;28;20233;-81
2022/10/13 09:28:29;;;;;;;6.57;5.28;;;;;;;;;;5074803;28;20595;-82
2022/10/13 09:31:05;;;;;;;8.00;6.18;;;;;;;;;;5074372;28;20211;-82
2022/10/13 09:33:37;;;;;;;9.20;5.82;;;;;;;;;;5073690;28;20207;-82
2022/10/13 09:36:14;;;;;;;7.05;6.00;;;;;;;;;;5072822;28;20751;-83
2022/10/13 09:38:45;;;;;;;7.07;6.30;;;;;;;;;;5074022;28;20221;-82
2022/10/13 09:41:20;;;;;;;6.68;6.03;;;;;;;;;;5073967;28;20195;-81
2022/10/13 09:44:04;;;;;;;7.70;6.22;;;;;;;;;;5074126;28;20192;-82
2022/10/13 09:46:34;;;;;;;7.38;5.82;;;;;;;;;;5074344;28;20278;-82
2022/10/13 09:49:07;;;;;;;7.75;6.93;;;;;;;;;;5074674;28;20237;-83
2022/10/13 09:51:39;;;;;;;9.35;7.65;;;;;;;;;;5075356;28;20212;-82
2022/10/13 09:54:26;;;;;;;10.27;6.15;;;;;;;;;;5075296;28;20205;-84
2022/10/13 09:56:57;;;;;;;6.72;5.68;;;;;;;;;;5074852;28;20211;-83
2022/10/13 09:59:32;;;;;;;7.10;5.95;;;;;;;;;;5073988;28;20217;-84
2022/10/13 10:02:04;;;;;;;4.82;4.28;;;;;;;;;;5074525;28;20200;-83
2022/10/13 10:04:37;;;;;;;4.95;3.95;;;;;;;;;;5074455;28;20227;-84
2022/10/13 10:07:12;;;;;;;4.65;3.42;;;;;;;;;;5074280;28;20227;-82
2022/10/13 10:09:44;;;;;;;3.78;3.28;;;;;;;;;;5074340;28;20224;-83
2022/10/13 10:12:16;;;;;;;5.45;2.95;;;;;;;;;;5055323;28;20202;-83
2022/10/13 10:14:43;;;;;;;4.13;3.05;;;;;;;;;;5054286;28;20213;-82
2022/10/13 10:17:20;;;;;;;3.97;2.63;;;;;;;;;;5054262;28;20292;-83
2022/10/13 10:19:59;;;;;;;3.92;3.55;;;;;;;;;;5054213;28;20226;-83
2022/10/13 10:22:37;;;;;;;3.03;2.28;;;;;;;;;;5053605;28;20682;-85
2022/10/13 10:25:24;;;;;;;2.78;2.58;;;;;;;;;;5053674;28;20275;-83
2022/10/13 10:28:11;;;;;;;5.18;4.43;;;;;;;;;;5053666;28;20222;-83
2022/10/13 10:30:47;;;;;;;6.88;5.20;;;;;;;;;;5053701;28;20288;-84
2022/10/13 10:33:20;;;;;;;5.80;4.20;;;;;;;;;;5054748;28;20593;-84
2022/10/13 10:35:54;;;;;;;5.40;4.90;;;;;;;;;;5053872;28;20201;-84
2022/10/13 10:38:32;;;;;;;4.07;3.67;;;;;;;;;;5054115;28;20221;-83
2022/10/13 10:41:08;;;;;;;5.40;4.88;;;;;;;;;;5096437;22;20231;-83
2022/10/13 10:43:47;;;;;;;5.13;4.63;;;;;;;;;;5071360;28;20276;-84
2022/10/13 10:46:18;;;;;;;3.58;3.22;;;;;;;;;;5058329;28;20303;-86
2022/10/13 10:48:49;;;;;;;4.45;4.03;;;;;;;;;;5057100;28;20779;-84
2022/10/13 10:51:19;;;;;;;4.15;3.75;;;;;;;;;;5038433;28;20210;-84
2022/10/13 10:53:56;;;;;;;3.60;3.28;;;;;;;;;;5040167;28;20225;-85
2022/10/13 10:56:31;;;;;;;5.72;4.63;;;;;;;;;;5037230;28;20284;-85
2022/10/13 10:59:14;;;;;;;4.63;4.15;;;;;;;;;;5038965;28;20300;-84
2022/10/13 11:01:46;;;;;;;6.40;4.60;;;;;;;;;;5038541;28;20213;-83
2022/10/13 11:04:43;;;;;;;8.15;4.65;;;;;;;;;;5039022;28;20655;-85
2022/10/13 11:07:16;;;;;;;5.07;4.38;;;;;;;;;;5034928;28;20229;-83
2022/10/13 11:10:20;;;;;;;5.63;4.28;;;;;;;;;;5034636;28;20773;-84
2022/10/13 11:13:24;;;;;;;4.43;4.03;;;;;;;;;;5040913;28;20233;-85
2022/10/13 11:15:52;;;;;;;6.20;3.83;;;;;;;;;;5053559;28;20220;-84
2022/10/13 11:19:04;;;;;;;4.18;2.80;;;;;;;;;;5053186;28;20575;-84
2022/10/13 11:22:13;;;;;;;3.83;2.72;;;;;;;;;;5055359;28;20198;-82
2022/10/13 11:24:59;;;;;;;4.75;3.58;;;;;;;;;;5054219;28;20579;-84
2022/10/13 11:27:39;;;;;;;7.45;6.68;;;;;;;;;;5055509;28;20631;-82
2022/10/13 11:30:28;;;;;;;7.50;6.40;;;;;;;;;;5052846;28;20228;-83
2022/10/13 11:32:55;;;;;;;9.07;6.53;;;;;;;;;;5054445;28;20213;-83
2022/10/13 11:35:28;;;;;;;7.45;5.80;;;;;;;;;;5053268;28;20288;-82
2022/10/13 11:38:29;;;;;;;7.63;6.07;;;;;;;;;;5051599;28;20696;-80
2022/10/13 11:41:15;;;;;;;10.30;7.25;;;;;;;;;;4950835;28;1067317;-82
2022/10/13 11:43:51;;;;;;;7.82;7.13;;;;;;;;;;5036175;28;20674;-81
2022/10/13 11:46:26;;;;;;;9.25;7.53;;;;;;;;;;5052239;28;20296;-81
2022/10/13 11:49:20;;;;;;;6.38;5.43;;;;;;;;;;5052387;28;20201;-81
2022/10/13 11:52:06;;;;;;;7.07;6.22;;;;;;;;;;5052475;28;20711;-82
2022/10/13 11:54:39;;;;;;;8.70;7.20;;;;;;;;;;5053335;28;20208;-81
2022/10/13 11:57:19;;;;;;;7.57;6.78;;;;;;;;;;5054558;28;20212;-81
2022/10/13 11:59:50;;;;;;;8.55;7.75;;;;;;;;;;5057906;28;20228;-82
2022/10/13 12:02:18;;;;;;;8.88;7.75;;;;;;;;;;5057944;28;20220;-82
2022/10/13 12:04:58;;;;;;;8.98;6.85;;;;;;;;;;5058322;28;20761;-82
2022/10/13 12:07:28;;;;;;;9.60;6.57;;;;;;;;;;5056884;28;20223;-82
2022/10/13 12:09:58;;;;;;;6.40;5.72;;;;;;;;;;5052773;28;20234;-82
2022/10/13 12:12:26;;;;;;;7.65;5.50;;;;;;;;;;5047389;28;20285;-83
2022/10/13 12:14:56;;;;;;;5.88;5.28;;;;;;;;;;5056801;28;20292;-83
2022/10/13 12:17:29;;;;;;;7.25;5.93;;;;;;;;;;5057053;28;20213;-84
2022/10/13 12:19:59;;;;;;;6.50;5.78;;;;;;;;;;5057332;28;20312;-82
2022/10/13 12:22:27;;;;;;;9.07;7.95;;;;;;;;;;5059892;28;20202;-82
2022/10/13 12:25:01;;;;;;;8.15;6.10;;;;;;;;;;5058246;28;20596;-80
2022/10/13 12:27:32;;;;;;;6.93;5.80;;;;;;;;;;5061238;28;20220;-81
2022/10/13 12:30:00;;;;;;;5.97;5.32;;;;;;;;;;5061646;28;20214;-81
2022/10/13 12:32:30;;;;;;;6.32;5.38;;;;;;;;;;5062084;28;20211;-82
2022/10/13 12:35:15;;;;;;;8.30;6.15;;;;;;;;;;5059252;28;20619;-82
2022/10/13 12:37:43;;;;;;;7.97;5.72;;;;;;;;;;5065649;28;20288;-84
2022/10/13 12:40:15;;;;;;;6.03;5.43;;;;;;;;;;5062406;28;20229;-82
2022/10/13 12:42:43;;;;;;;5.22;4.72;;;;;;;;;;5068739;28;20278;-83
2022/10/13 12:45:16;;;;;;;5.50;4.85;;;;;;;;;;5068117;28;20236;-84
2022/10/13 12:47:49;;;;;;;4.78;4.30;;;;;;;;;;5058823;28;20329;-81
2022/10/13 12:50:39;;;;;;;4.03;3.63;;;;;;;;;;5060132;28;20218;-83
2022/10/13 12:53:17;;;;;;;6.18;5.57;;;;;;;;;;5057740;28;20208;-81
2022/10/13 12:55:55;;;;;;;5.15;4.68;;;;;;;;;;5055536;28;20201;-82
2022/10/13 12:58:26;;;;;;;4.78;4.35;;;;;;;;;;5055379;28;20556;-82
2022/10/13 13:01:20;;;;;;;9.38;5.90;;;;;;;;;;5054469;28;20217;-80
2022/10/13 13:03:56;;;;;;;5.20;4.22;;;;;;;;;;5054917;28;20288;-83
2022/10/13 13:06:32;;;;;;;5.65;4.85;;;;;;;;;;5056025;28;20213;-81
2022/10/13 13:09:27;;;;;;;3.25;2.95;;;;;;;;;;5056500;28;20282;-79
2022/10/13 13:12:22;;;;;;;4.80;4.25;;;;;;;;;;5048106;28;20202;-80
2022/10/13 13:14:53;;;;;;;5.72;5.03;;;;;;;;;;5034991;28;20199;-82
2022/10/13 13:17:27;;;;;;;4.57;4.00;;;;;;;;;;5036242;28;20206;-81
2022/10/13 13:19:56;;;;;;;5.15;4.57;;;;;;;;;;5036288;28;20264;-80
2022/10/13 13:22:24;;;;;;;4.95;4.43;;;;;;;;;;5055046;28;20688;-82
2022/10/13 13:24:52;;;;;;;10.98;5.53;;;;;;;;;;5055925;28;20205;-79
2022/10/13 13:27:25;;;;;;;6.45;4.40;;;;;;;;;;5055743;28;20208;-81
2022/10/13 13:29:53;;;;;;;4.57;4.13;;;;;;;;;;5054892;28;20218;-80
2022/10/13 13:32:23;;;;;;;5.40;4.90;;;;;;;;;;5055217;28;20198;-79
2022/10/13 13:34:50;;;;;;;4.95;3.65;;;;;;;;;;5056026;28;20231;-80
2022/10/13 13:37:28;;;;;;;4.30;3.30;;;;;;;;;;5055697;28;20197;-81
2022/10/13 13:39:56;;;;;;;4.82;3.70;;;;;;;;;;5054874;28;20229;-81
2022/10/13 13:42:26;;;;;;;5.00;4.35;;;;;;;;;;5056188;28;20673;-82
2022/10/13 13:44:54;;;;;;;3.97;3.30;;;;;;;;;;5055180;28;20220;-82
2022/10/13 13:47:23;;;;;;;3.88;3.50;;;;;;;;;;5054885;28;20568;-80
2022/10/13 13:49:53;;;;;;;5.05;4.18;;;;;;;;;;5055326;28;20663;-80
2022/10/13 13:52:21;;;;;;;4.78;4.20;;;;;;;;;;5052441;28;20251;-82
2022/10/13 13:54:50;;;;;;;6.18;4.80;;;;;;;;;;5055551;28;20201;-81
2022/10/13 13:57:18;;;;;;;7.70;5.18;;;;;;;;;;5046875;28;20202;-81
2022/10/13 13:59:47;;;;;;;5.25;4.75;;;;;;;;;;5055002;28;20592;-81
2022/10/13 14:02:18;;;;;;;5.20;4.68;;;;;;;;;;5055714;28;20205;-81
2022/10/13 14:04:46;;;;;;;6.28;4.68;;;;;;;;;;5055612;28;20197;-82
2022/10/13 14:07:14;;;;;;;5.43;4.93;;;;;;;;;;5055214;28;20653;-82
2022/10/13 14:09:41;;;;;;;4.40;4.00;;;;;;;;;;5048067;28;20248;-81
2022/10/13 14:12:09;;;;;;;7.53;5.07;;;;;;;;;;5035237;28;20289;-81
2022/10/13 14:14:36;;;;;;;7.75;4.95;;;;;;;;;;5034501;28;20285;-82
2022/10/13 14:17:06;;;;;;;6.22;4.93;;;;;;;;;;5035142;28;20294;-82
2022/10/13 14:19:34;;;;;;;9.43;6.28;;;;;;;;;;5034450;28;20313;-81
2022/10/13 14:22:01;;;;;;;8.68;5.38;;;;;;;;;;5039164;28;20295;-82
2022/10/13 14:24:29;;;;;;;5.35;4.13;;;;;;;;;;5054209;28;20208;-81
2022/10/13 14:26:57;;;;;;;5.88;4.60;;;;;;;;;;5054505;28;20240;-80
2022/10/13 14:29:24;;;;;;;4.97;4.22;;;;;;;;;;5053590;28;20225;-80
2022/10/13 14:31:52;;;;;;;4.70;3.90;;;;;;;;;;5053775;28;20206;-81
2022/10/13 14:34:21;;;;;;;5.60;3.75;;;;;;;;;;5053814;28;20646;-82
2022/10/13 14:36:48;;;;;;;7.35;4.53;;;;;;;;;;5054439;28;20650;-81
2022/10/13 14:39:16;;;;;;;6.22;5.13;;;;;;;;;;5053444;28;20275;-81
2022/10/13 14:41:43;;;;;;;4.57;4.15;;;;;;;;;;5054014;28;20216;-82
2022/10/13 14:44:13;;;;;;;7.63;4.95;;;;;;;;;;5053679;28;20298;-82
2022/10/13 14:46:40;;;;;;;6.20;4.90;;;;;;;;;;5042188;28;20200;-81
2022/10/13 14:49:09;;;;;;;6.25;5.65;;;;;;;;;;5033720;28;20658;-81
2022/10/13 14:51:38;;;;;;;5.97;4.35;;;;;;;;;;5035526;28;20213;-82
2022/10/13 14:54:06;;;;;;;7.15;4.63;;;;;;;;;;5044676;28;20197;-82
2022/10/13 14:56:33;;;;;;;5.38;4.88;;;;;;;;;;5035975;28;20198;-81
2022/10/13 14:59:03;;;;;;;3.60;3.30;;;;;;;;;;5033486;28;20194;-80
2022/10/13 15:01:32;;;;;;;5.30;4.80;;;;;;;;;;5033416;28;20671;-82
2022/10/13 15:03:59;;;;;;;3.85;3.42;;;;;;;;;;5033585;28;20205;-80
2022/10/13 15:06:27;;;;;;;6.07;5.43;;;;;;;;;;5034409;28;20205;-80
2022/10/13 15:08:56;;;;;;;5.50;4.85;;;;;;;;;;5035133;28;20312;-80